sensor_id;sensor_type;location;lat;lon;timestamp;P1;durP1;ratioP1;P2;durP2;ratioP2
52294;SDS011;38243;53.212;6.574;2023-05-07T00:02:24;3.27;;;2.80;;
52294;SDS011;38243;53.212;6.574;2023-05-07T00:04:50;2.78;;;2.40;;
52294;SDS011;38243;53.212;6.574;2023-05-07T00:07:17;3.93;;;3.07;;
52294;SDS011;38243;53.212;6.574;2023-05-07T00:09:43;3.40;;;2.70;;
52294;SDS011;38243;53.212;6.574;2023-05-07T00:12:09;4.13;;;2.83;;
52294;SDS011;38243;53.212;6.574;2023-05-07T00:14:35;3.13;;;2.53;;
52294;SDS011;38243;53.212;6.574;2023-05-07T00:17:00;4.07;;;2.77;;
52294;SDS011;38243;53.212;6.574;2023-05-07T00:19:26;3.75;;;2.90;;
52294;SDS011;38243;53.212;6.574;2023-05-07T00:21:52;3.00;;;2.60;;
52294;SDS011;38243;53.212;6.574;2023-05-07T00:24:21;3.57;;;2.70;;
52294;SDS011;38243;53.212;6.574;2023-05-07T00:26:47;3.92;;;3.42;;
52294;SDS011;38243;53.212;6.574;2023-05-07T00:29:13;3.47;;;3.17;;
52294;SDS011;38243;53.212;6.574;2023-05-07T00:31:39;3.10;;;2.80;;
52294;SDS011;38243;53.212;6.574;2023-05-07T00:34:05;3.37;;;3.07;;
52294;SDS011;38243;53.212;6.574;2023-05-07T00:36:31;3.58;;;2.97;;
52294;SDS011;38243;53.212;6.574;2023-05-07T00:38:57;3.83;;;3.03;;
52294;SDS011;38243;53.212;6.574;2023-05-07T00:41:26;3.20;;;2.87;;
52294;SDS011;38243;53.212;6.574;2023-05-07T00:43:52;3.05;;;2.55;;
52294;SDS011;38243;53.212;6.574;2023-05-07T00:46:19;3.73;;;2.73;;
52294;SDS011;38243;53.212;6.574;2023-05-07T00:48:45;3.88;;;2.97;;
52294;SDS011;38243;53.212;6.574;2023-05-07T00:51:11;3.30;;;3.00;;
52294;SDS011;38243;53.212;6.574;2023-05-07T00:53:37;4.03;;;3.63;;
52294;SDS011;38243;53.212;6.574;2023-05-07T00:56:03;4.30;;;3.00;;
52294;SDS011;38243;53.212;6.574;2023-05-07T00:58:31;3.95;;;3.30;;
52294;SDS011;38243;53.212;6.574;2023-05-07T01:00:58;4.20;;;3.80;;
52294;SDS011;38243;53.212;6.574;2023-05-07T01:03:24;4.35;;;3.28;;
52294;SDS011;38243;53.212;6.574;2023-05-07T01:05:50;4.20;;;3.20;;
52294;SDS011;38243;53.212;6.574;2023-05-07T01:08:18;6.03;;;3.80;;
52294;SDS011;38243;53.212;6.574;2023-05-07T01:10:45;4.10;;;3.70;;
52294;SDS011;38243;53.212;6.574;2023-05-07T01:13:12;4.07;;;3.58;;
52294;SDS011;38243;53.212;6.574;2023-05-07T01:15:39;5.70;;;3.92;;
52294;SDS011;38243;53.212;6.574;2023-05-07T01:18:06;4.38;;;3.58;;
52294;SDS011;38243;53.212;6.574;2023-05-07T01:20:32;4.63;;;3.50;;
52294;SDS011;38243;53.212;6.574;2023-05-07T01:22:58;6.20;;;4.10;;
52294;SDS011;38243;53.212;6.574;2023-05-07T01:25:26;4.60;;;3.80;;
52294;SDS011;38243;53.212;6.574;2023-05-07T01:27:52;5.78;;;4.03;;
52294;SDS011;38243;53.212;6.574;2023-05-07T01:30:18;5.40;;;3.93;;
52294;SDS011;38243;53.212;6.574;2023-05-07T01:32:51;4.43;;;3.78;;
52294;SDS011;38243;53.212;6.574;2023-05-07T01:35:22;3.90;;;3.50;;
52294;SDS011;38243;53.212;6.574;2023-05-07T01:37:54;5.65;;;4.15;;
52294;SDS011;38243;53.212;6.574;2023-05-07T01:40:20;5.70;;;4.00;;
52294;SDS011;38243;53.212;6.574;2023-05-07T01:42:46;4.53;;;4.10;;
52294;SDS011;38243;53.212;6.574;2023-05-07T01:45:13;4.85;;;4.32;;
52294;SDS011;38243;53.212;6.574;2023-05-07T01:47:39;5.72;;;4.25;;
52294;SDS011;38243;53.212;6.574;2023-05-07T01:50:05;4.93;;;3.93;;
52294;SDS011;38243;53.212;6.574;2023-05-07T01:52:33;4.82;;;4.05;;
52294;SDS011;38243;53.212;6.574;2023-05-07T01:54:59;4.82;;;4.05;;
52294;SDS011;38243;53.212;6.574;2023-05-07T01:57:25;5.30;;;3.83;;
52294;SDS011;38243;53.212;6.574;2023-05-07T01:59:51;3.90;;;3.50;;
52294;SDS011;38243;53.212;6.574;2023-05-07T02:02:17;4.17;;;3.77;;
52294;SDS011;38243;53.212;6.574;2023-05-07T02:04:42;4.72;;;3.92;;
52294;SDS011;38243;53.212;6.574;2023-05-07T02:07:08;5.20;;;4.70;;
52294;SDS011;38243;53.212;6.574;2023-05-07T02:09:35;5.10;;;4.28;;
52294;SDS011;38243;53.212;6.574;2023-05-07T02:12:00;5.00;;;4.15;;
52294;SDS011;38243;53.212;6.574;2023-05-07T02:14:26;5.23;;;4.00;;
52294;SDS011;38243;53.212;6.574;2023-05-07T02:16:52;5.35;;;4.35;;
52294;SDS011;38243;53.212;6.574;2023-05-07T02:19:18;5.60;;;4.40;;
52294;SDS011;38243;53.212;6.574;2023-05-07T02:21:46;6.33;;;4.40;;
52294;SDS011;38243;53.212;6.574;2023-05-07T02:24:12;5.50;;;4.40;;
52294;SDS011;38243;53.212;6.574;2023-05-07T02:26:39;5.67;;;4.50;;
52294;SDS011;38243;53.212;6.574;2023-05-07T02:29:05;4.78;;;4.20;;
52294;SDS011;38243;53.212;6.574;2023-05-07T02:31:31;5.38;;;4.35;;
52294;SDS011;38243;53.212;6.574;2023-05-07T02:33:58;4.80;;;4.28;;
52294;SDS011;38243;53.212;6.574;2023-05-07T02:36:25;4.85;;;3.63;;
52294;SDS011;38243;53.212;6.574;2023-05-07T02:38:51;4.32;;;3.92;;
52294;SDS011;38243;53.212;6.574;2023-05-07T02:41:17;5.20;;;4.37;;
52294;SDS011;38243;53.212;6.574;2023-05-07T02:43:43;4.47;;;4.00;;
52294;SDS011;38243;53.212;6.574;2023-05-07T02:46:09;4.53;;;3.50;;
52294;SDS011;38243;53.212;6.574;2023-05-07T02:48:35;4.28;;;3.88;;
52294;SDS011;38243;53.212;6.574;2023-05-07T02:51:01;4.60;;;4.10;;
52294;SDS011;38243;53.212;6.574;2023-05-07T02:53:28;6.43;;;4.03;;
52294;SDS011;38243;53.212;6.574;2023-05-07T02:55:58;4.32;;;3.80;;
52294;SDS011;38243;53.212;6.574;2023-05-07T02:58:25;5.88;;;4.70;;
52294;SDS011;38243;53.212;6.574;2023-05-07T03:00:52;4.32;;;3.92;;
52294;SDS011;38243;53.212;6.574;2023-05-07T03:03:19;5.53;;;3.83;;
52294;SDS011;38243;53.212;6.574;2023-05-07T03:05:45;4.43;;;3.90;;
52294;SDS011;38243;53.212;6.574;2023-05-07T03:08:11;5.35;;;4.72;;
52294;SDS011;38243;53.212;6.574;2023-05-07T03:10:37;4.22;;;3.83;;
52294;SDS011;38243;53.212;6.574;2023-05-07T03:13:03;5.22;;;4.70;;
52294;SDS011;38243;53.212;6.574;2023-05-07T03:15:30;4.40;;;4.00;;
52294;SDS011;38243;53.212;6.574;2023-05-07T03:17:55;5.07;;;4.30;;
52294;SDS011;38243;53.212;6.574;2023-05-07T03:20:21;5.27;;;4.10;;
52294;SDS011;38243;53.212;6.574;2023-05-07T03:22:47;3.97;;;3.58;;
52294;SDS011;38243;53.212;6.574;2023-05-07T03:25:13;4.30;;;3.90;;
52294;SDS011;38243;53.212;6.574;2023-05-07T03:27:40;5.25;;;4.63;;
52294;SDS011;38243;53.212;6.574;2023-05-07T03:30:07;4.78;;;4.28;;
52294;SDS011;38243;53.212;6.574;2023-05-07T03:32:33;4.73;;;3.97;;
52294;SDS011;38243;53.212;6.574;2023-05-07T03:35:00;4.88;;;4.38;;
52294;SDS011;38243;53.212;6.574;2023-05-07T03:37:26;4.88;;;4.38;;
52294;SDS011;38243;53.212;6.574;2023-05-07T03:39:52;5.03;;;4.33;;
52294;SDS011;38243;53.212;6.574;2023-05-07T03:42:17;5.35;;;4.50;;
52294;SDS011;38243;53.212;6.574;2023-05-07T03:44:43;5.27;;;4.40;;
52294;SDS011;38243;53.212;6.574;2023-05-07T03:47:09;5.43;;;4.78;;
52294;SDS011;38243;53.212;6.574;2023-05-07T03:49:35;5.75;;;4.25;;
52294;SDS011;38243;53.212;6.574;2023-05-07T03:52:02;4.97;;;4.47;;
52294;SDS011;38243;53.212;6.574;2023-05-07T03:54:27;5.18;;;4.43;;
52294;SDS011;38243;53.212;6.574;2023-05-07T03:56:53;4.97;;;4.47;;
52294;SDS011;38243;53.212;6.574;2023-05-07T03:59:19;5.03;;;3.97;;
52294;SDS011;38243;53.212;6.574;2023-05-07T04:01:45;6.17;;;4.50;;
52294;SDS011;38243;53.212;6.574;2023-05-07T04:04:10;5.88;;;4.50;;
52294;SDS011;38243;53.212;6.574;2023-05-07T04:06:36;5.30;;;4.20;;
52294;SDS011;38243;53.212;6.574;2023-05-07T04:09:02;4.25;;;3.70;;
52294;SDS011;38243;53.212;6.574;2023-05-07T04:11:28;5.32;;;4.20;;
52294;SDS011;38243;53.212;6.574;2023-05-07T04:13:54;4.50;;;3.92;;
52294;SDS011;38243;53.212;6.574;2023-05-07T04:16:20;3.87;;;3.50;;
52294;SDS011;38243;53.212;6.574;2023-05-07T04:18:46;4.35;;;3.95;;
52294;SDS011;38243;53.212;6.574;2023-05-07T04:21:17;4.70;;;4.20;;
52294;SDS011;38243;53.212;6.574;2023-05-07T04:23:45;5.05;;;3.90;;
52294;SDS011;38243;53.212;6.574;2023-05-07T04:26:12;4.83;;;4.33;;
52294;SDS011;38243;53.212;6.574;2023-05-07T04:28:38;5.07;;;4.20;;
52294;SDS011;38243;53.212;6.574;2023-05-07T04:31:04;5.00;;;4.25;;
52294;SDS011;38243;53.212;6.574;2023-05-07T04:33:30;5.60;;;4.60;;
52294;SDS011;38243;53.212;6.574;2023-05-07T04:35:56;6.10;;;4.75;;
52294;SDS011;38243;53.212;6.574;2023-05-07T04:38:22;5.00;;;4.50;;
52294;SDS011;38243;53.212;6.574;2023-05-07T04:40:51;4.77;;;4.30;;
52294;SDS011;38243;53.212;6.574;2023-05-07T04:43:16;6.22;;;4.50;;
52294;SDS011;38243;53.212;6.574;2023-05-07T04:45:42;6.13;;;4.40;;
52294;SDS011;38243;53.212;6.574;2023-05-07T04:48:09;4.50;;;4.10;;
52294;SDS011;38243;53.212;6.574;2023-05-07T04:50:35;6.23;;;4.60;;
52294;SDS011;38243;53.212;6.574;2023-05-07T04:53:00;5.13;;;4.55;;
52294;SDS011;38243;53.212;6.574;2023-05-07T04:55:26;6.27;;;4.53;;
52294;SDS011;38243;53.212;6.574;2023-05-07T04:57:52;4.85;;;4.07;;
52294;SDS011;38243;53.212;6.574;2023-05-07T05:00:18;4.82;;;4.32;;
52294;SDS011;38243;53.212;6.574;2023-05-07T05:02:45;4.72;;;4.10;;
52294;SDS011;38243;53.212;6.574;2023-05-07T05:05:11;5.53;;;4.53;;
52294;SDS011;38243;53.212;6.574;2023-05-07T05:07:36;7.30;;;4.40;;
52294;SDS011;38243;53.212;6.574;2023-05-07T05:10:02;5.13;;;4.43;;
52294;SDS011;38243;53.212;6.574;2023-05-07T05:12:30;5.03;;;4.13;;
52294;SDS011;38243;53.212;6.574;2023-05-07T05:14:56;4.10;;;3.70;;
52294;SDS011;38243;53.212;6.574;2023-05-07T05:17:22;4.40;;;3.95;;
52294;SDS011;38243;53.212;6.574;2023-05-07T05:19:48;5.00;;;4.20;;
52294;SDS011;38243;53.212;6.574;2023-05-07T05:22:13;5.03;;;4.40;;
52294;SDS011;38243;53.212;6.574;2023-05-07T05:24:39;4.53;;;3.83;;
52294;SDS011;38243;53.212;6.574;2023-05-07T05:27:05;4.97;;;4.05;;
52294;SDS011;38243;53.212;6.574;2023-05-07T05:29:31;4.77;;;3.93;;
52294;SDS011;38243;53.212;6.574;2023-05-07T05:31:56;4.28;;;3.88;;
52294;SDS011;38243;53.212;6.574;2023-05-07T05:34:22;4.68;;;4.10;;
52294;SDS011;38243;53.212;6.574;2023-05-07T05:36:48;4.30;;;3.90;;
52294;SDS011;38243;53.212;6.574;2023-05-07T05:39:14;4.78;;;4.13;;
52294;SDS011;38243;53.212;6.574;2023-05-07T05:41:39;4.47;;;4.07;;
52294;SDS011;38243;53.212;6.574;2023-05-07T05:44:06;4.05;;;3.67;;
52294;SDS011;38243;53.212;6.574;2023-05-07T05:46:32;4.78;;;4.28;;
52294;SDS011;38243;53.212;6.574;2023-05-07T05:48:57;4.40;;;4.00;;
52294;SDS011;38243;53.212;6.574;2023-05-07T05:51:23;4.47;;;3.70;;
52294;SDS011;38243;53.212;6.574;2023-05-07T05:53:49;4.03;;;3.63;;
52294;SDS011;38243;53.212;6.574;2023-05-07T05:56:15;5.30;;;4.80;;
52294;SDS011;38243;53.212;6.574;2023-05-07T05:58:41;4.20;;;3.80;;
52294;SDS011;38243;53.212;6.574;2023-05-07T06:01:07;4.32;;;3.70;;
52294;SDS011;38243;53.212;6.574;2023-05-07T06:03:33;4.07;;;3.67;;
52294;SDS011;38243;53.212;6.574;2023-05-07T06:05:59;4.10;;;3.70;;
52294;SDS011;38243;53.212;6.574;2023-05-07T06:08:25;4.70;;;3.67;;
52294;SDS011;38243;53.212;6.574;2023-05-07T06:10:54;3.97;;;3.58;;
52294;SDS011;38243;53.212;6.574;2023-05-07T06:13:20;4.18;;;3.60;;
52294;SDS011;38243;53.212;6.574;2023-05-07T06:15:46;4.70;;;3.90;;
52294;SDS011;38243;53.212;6.574;2023-05-07T06:18:12;5.30;;;3.70;;
52294;SDS011;38243;53.212;6.574;2023-05-07T06:20:37;4.22;;;3.83;;
52294;SDS011;38243;53.212;6.574;2023-05-07T06:23:03;4.50;;;3.60;;
52294;SDS011;38243;53.212;6.574;2023-05-07T06:25:29;4.10;;;3.70;;
52294;SDS011;38243;53.212;6.574;2023-05-07T06:27:55;4.13;;;3.30;;
52294;SDS011;38243;53.212;6.574;2023-05-07T06:30:21;4.17;;;3.40;;
52294;SDS011;38243;53.212;6.574;2023-05-07T06:32:47;4.38;;;3.97;;
52294;SDS011;38243;53.212;6.574;2023-05-07T06:35:13;4.45;;;3.90;;
52294;SDS011;38243;53.212;6.574;2023-05-07T06:37:38;4.10;;;3.70;;
52294;SDS011;38243;53.212;6.574;2023-05-07T06:40:07;5.75;;;3.33;;
52294;SDS011;38243;53.212;6.574;2023-05-07T06:42:35;4.03;;;3.63;;
52294;SDS011;38243;53.212;6.574;2023-05-07T06:45:01;3.67;;;3.28;;
52294;SDS011;38243;53.212;6.574;2023-05-07T06:47:27;3.80;;;3.50;;
52294;SDS011;38243;53.212;6.574;2023-05-07T06:49:53;4.23;;;3.83;;
52294;SDS011;38243;53.212;6.574;2023-05-07T06:52:19;4.32;;;3.92;;
52294;SDS011;38243;53.212;6.574;2023-05-07T06:54:45;4.38;;;3.90;;
52294;SDS011;38243;53.212;6.574;2023-05-07T06:57:11;5.63;;;4.17;;
52294;SDS011;38243;53.212;6.574;2023-05-07T06:59:36;4.45;;;4.05;;
52294;SDS011;38243;53.212;6.574;2023-05-07T07:02:02;4.00;;;3.60;;
52294;SDS011;38243;53.212;6.574;2023-05-07T07:04:28;5.28;;;4.78;;
52294;SDS011;38243;53.212;6.574;2023-05-07T07:06:54;4.38;;;3.97;;
52294;SDS011;38243;53.212;6.574;2023-05-07T07:09:21;3.97;;;3.58;;
52294;SDS011;38243;53.212;6.574;2023-05-07T07:11:47;4.05;;;3.65;;
52294;SDS011;38243;53.212;6.574;2023-05-07T07:14:13;4.45;;;3.90;;
52294;SDS011;38243;53.212;6.574;2023-05-07T07:16:39;4.47;;;4.07;;
52294;SDS011;38243;53.212;6.574;2023-05-07T07:19:05;4.57;;;3.58;;
52294;SDS011;38243;53.212;6.574;2023-05-07T07:21:31;4.10;;;3.67;;
52294;SDS011;38243;53.212;6.574;2023-05-07T07:23:57;4.27;;;3.23;;
52294;SDS011;38243;53.212;6.574;2023-05-07T07:26:23;4.18;;;3.78;;
52294;SDS011;38243;53.212;6.574;2023-05-07T07:28:49;4.47;;;3.33;;
52294;SDS011;38243;53.212;6.574;2023-05-07T07:31:14;4.65;;;4.03;;
52294;SDS011;38243;53.212;6.574;2023-05-07T07:33:40;3.70;;;3.40;;
52294;SDS011;38243;53.212;6.574;2023-05-07T07:36:06;4.65;;;3.95;;
52294;SDS011;38243;53.212;6.574;2023-05-07T07:38:33;4.50;;;3.75;;
52294;SDS011;38243;53.212;6.574;2023-05-07T07:40:59;4.40;;;3.63;;
52294;SDS011;38243;53.212;6.574;2023-05-07T07:43:26;4.10;;;3.70;;
52294;SDS011;38243;53.212;6.574;2023-05-07T07:45:52;3.40;;;3.10;;
52294;SDS011;38243;53.212;6.574;2023-05-07T07:48:18;4.50;;;4.07;;
52294;SDS011;38243;53.212;6.574;2023-05-07T07:50:44;5.60;;;4.50;;
52294;SDS011;38243;53.212;6.574;2023-05-07T07:53:09;3.78;;;3.40;;
52294;SDS011;38243;53.212;6.574;2023-05-07T07:55:39;4.20;;;3.80;;
52294;SDS011;38243;53.212;6.574;2023-05-07T07:58:05;4.68;;;4.20;;
52294;SDS011;38243;53.212;6.574;2023-05-07T08:00:30;4.87;;;3.90;;
52294;SDS011;38243;53.212;6.574;2023-05-07T08:02:56;4.80;;;4.18;;
52294;SDS011;38243;53.212;6.574;2023-05-07T08:05:22;4.70;;;4.05;;
52294;SDS011;38243;53.212;6.574;2023-05-07T08:07:48;5.22;;;4.63;;
52294;SDS011;38243;53.212;6.574;2023-05-07T08:10:18;5.90;;;4.70;;
52294;SDS011;38243;53.212;6.574;2023-05-07T08:12:49;4.90;;;3.97;;
52294;SDS011;38243;53.212;6.574;2023-05-07T08:15:16;4.30;;;3.90;;
52294;SDS011;38243;53.212;6.574;2023-05-07T08:17:42;5.00;;;4.50;;
52294;SDS011;38243;53.212;6.574;2023-05-07T08:20:08;4.10;;;3.70;;
52294;SDS011;38243;53.212;6.574;2023-05-07T08:22:35;8.07;;;5.10;;
52294;SDS011;38243;53.212;6.574;2023-05-07T08:25:01;4.60;;;4.20;;
52294;SDS011;38243;53.212;6.574;2023-05-07T08:27:27;5.00;;;4.50;;
52294;SDS011;38243;53.212;6.574;2023-05-07T08:29:53;5.68;;;4.47;;
52294;SDS011;38243;53.212;6.574;2023-05-07T08:32:20;5.35;;;4.43;;
52294;SDS011;38243;53.212;6.574;2023-05-07T08:34:46;6.35;;;4.30;;
52294;SDS011;38243;53.212;6.574;2023-05-07T08:37:12;5.03;;;4.53;;
52294;SDS011;38243;53.212;6.574;2023-05-07T08:39:37;6.32;;;4.57;;
52294;SDS011;38243;53.212;6.574;2023-05-07T08:42:03;6.87;;;4.50;;
52294;SDS011;38243;53.212;6.574;2023-05-07T08:44:33;5.88;;;4.63;;
52294;SDS011;38243;53.212;6.574;2023-05-07T08:47:00;5.15;;;4.53;;
52294;SDS011;38243;53.212;6.574;2023-05-07T08:49:27;5.37;;;4.23;;
52294;SDS011;38243;53.212;6.574;2023-05-07T08:51:54;5.70;;;5.13;;
52294;SDS011;38243;53.212;6.574;2023-05-07T08:54:21;5.20;;;4.53;;
52294;SDS011;38243;53.212;6.574;2023-05-07T08:56:47;4.50;;;4.03;;
52294;SDS011;38243;53.212;6.574;2023-05-07T08:59:13;6.10;;;4.90;;
52294;SDS011;38243;53.212;6.574;2023-05-07T09:01:39;5.55;;;4.85;;
52294;SDS011;38243;53.212;6.574;2023-05-07T09:04:04;5.95;;;5.35;;
52294;SDS011;38243;53.212;6.574;2023-05-07T09:06:31;5.97;;;5.30;;
52294;SDS011;38243;53.212;6.574;2023-05-07T09:08:58;5.55;;;4.95;;
52294;SDS011;38243;53.212;6.574;2023-05-07T09:11:26;6.00;;;4.93;;
52294;SDS011;38243;53.212;6.574;2023-05-07T09:13:55;5.53;;;4.77;;
52294;SDS011;38243;53.212;6.574;2023-05-07T09:16:23;5.43;;;4.80;;
52294;SDS011;38243;53.212;6.574;2023-05-07T09:18:53;5.80;;;4.87;;
52294;SDS011;38243;53.212;6.574;2023-05-07T09:21:20;5.28;;;4.78;;
52294;SDS011;38243;53.212;6.574;2023-05-07T09:23:51;5.30;;;4.80;;
52294;SDS011;38243;53.212;6.574;2023-05-07T09:26:18;5.20;;;4.63;;
52294;SDS011;38243;53.212;6.574;2023-05-07T09:28:46;5.45;;;4.10;;
52294;SDS011;38243;53.212;6.574;2023-05-07T09:31:12;5.57;;;4.50;;
52294;SDS011;38243;53.212;6.574;2023-05-07T09:33:38;5.30;;;4.80;;
52294;SDS011;38243;53.212;6.574;2023-05-07T09:36:04;4.85;;;4.15;;
52294;SDS011;38243;53.212;6.574;2023-05-07T09:38:32;4.95;;;4.45;;
52294;SDS011;38243;53.212;6.574;2023-05-07T09:41:05;5.00;;;4.50;;
52294;SDS011;38243;53.212;6.574;2023-05-07T09:43:33;4.57;;;4.10;;
52294;SDS011;38243;53.212;6.574;2023-05-07T09:46:03;4.80;;;4.30;;
52294;SDS011;38243;53.212;6.574;2023-05-07T09:48:31;6.25;;;4.30;;
52294;SDS011;38243;53.212;6.574;2023-05-07T09:51:02;5.03;;;4.50;;
52294;SDS011;38243;53.212;6.574;2023-05-07T09:53:29;4.90;;;4.40;;
52294;SDS011;38243;53.212;6.574;2023-05-07T09:55:56;4.93;;;4.43;;
52294;SDS011;38243;53.212;6.574;2023-05-07T09:58:23;4.57;;;4.07;;
52294;SDS011;38243;53.212;6.574;2023-05-07T10:00:51;4.65;;;4.13;;
52294;SDS011;38243;53.212;6.574;2023-05-07T10:03:18;5.20;;;4.28;;
52294;SDS011;38243;53.212;6.574;2023-05-07T10:05:45;5.10;;;4.60;;
52294;SDS011;38243;53.212;6.574;2023-05-07T10:08:12;4.93;;;4.38;;
52294;SDS011;38243;53.212;6.574;2023-05-07T10:10:39;4.40;;;4.00;;
52294;SDS011;38243;53.212;6.574;2023-05-07T10:13:06;4.80;;;4.30;;
52294;SDS011;38243;53.212;6.574;2023-05-07T10:15:35;4.35;;;3.90;;
52294;SDS011;38243;53.212;6.574;2023-05-07T10:18:03;3.97;;;3.57;;
52294;SDS011;38243;53.212;6.574;2023-05-07T10:20:29;4.63;;;4.22;;
52294;SDS011;38243;53.212;6.574;2023-05-07T10:22:56;4.40;;;4.00;;
52294;SDS011;38243;53.212;6.574;2023-05-07T10:25:28;4.63;;;4.18;;
52294;SDS011;38243;53.212;6.574;2023-05-07T10:27:57;4.00;;;3.60;;
52294;SDS011;38243;53.212;6.574;2023-05-07T10:31:01;3.97;;;3.50;;
52294;SDS011;38243;53.212;6.574;2023-05-07T10:33:27;4.10;;;3.67;;
52294;SDS011;38243;53.212;6.574;2023-05-07T10:35:59;4.72;;;4.05;;
52294;SDS011;38243;53.212;6.574;2023-05-07T10:38:26;3.80;;;3.40;;
52294;SDS011;38243;53.212;6.574;2023-05-07T10:40:53;4.30;;;3.90;;
52294;SDS011;38243;53.212;6.574;2023-05-07T10:43:19;4.30;;;3.28;;
52294;SDS011;38243;53.212;6.574;2023-05-07T10:46:30;4.50;;;3.70;;
52294;SDS011;38243;53.212;6.574;2023-05-07T10:51:28;3.17;;;2.90;;
52294;SDS011;38243;53.212;6.574;2023-05-07T10:56:40;3.40;;;3.10;;
52294;SDS011;38243;53.212;6.574;2023-05-07T11:01:56;3.40;;;3.10;;
52294;SDS011;38243;53.212;6.574;2023-05-07T11:04:23;3.72;;;3.05;;
52294;SDS011;38243;53.212;6.574;2023-05-07T11:13:01;3.40;;;2.60;;
52294;SDS011;38243;53.212;6.574;2023-05-07T11:17:56;3.13;;;2.75;;
52294;SDS011;38243;53.212;6.574;2023-05-07T11:23:12;2.87;;;2.67;;
52294;SDS011;38243;53.212;6.574;2023-05-07T11:28:39;3.30;;;2.95;;
52294;SDS011;38243;53.212;6.574;2023-05-07T11:31:06;2.73;;;2.53;;
52294;SDS011;38243;53.212;6.574;2023-05-07T11:33:32;3.00;;;2.70;;
52294;SDS011;38243;53.212;6.574;2023-05-07T11:35:59;2.88;;;2.58;;
52294;SDS011;38243;53.212;6.574;2023-05-07T11:38:25;3.47;;;2.70;;
52294;SDS011;38243;53.212;6.574;2023-05-07T11:40:52;2.95;;;2.65;;
52294;SDS011;38243;53.212;6.574;2023-05-07T11:43:18;2.70;;;2.50;;
52294;SDS011;38243;53.212;6.574;2023-05-07T11:45:44;2.83;;;2.53;;
52294;SDS011;38243;53.212;6.574;2023-05-07T11:48:12;3.03;;;2.72;;
52294;SDS011;38243;53.212;6.574;2023-05-07T11:50:51;3.00;;;2.70;;
52294;SDS011;38243;53.212;6.574;2023-05-07T11:53:19;3.03;;;2.72;;
52294;SDS011;38243;53.212;6.574;2023-05-07T11:55:45;2.92;;;2.63;;
52294;SDS011;38243;53.212;6.574;2023-05-07T11:58:12;2.58;;;2.38;;
52294;SDS011;38243;53.212;6.574;2023-05-07T12:00:49;2.63;;;2.42;;
52294;SDS011;38243;53.212;6.574;2023-05-07T12:03:18;2.70;;;2.50;;
52294;SDS011;38243;53.212;6.574;2023-05-07T12:05:45;2.83;;;2.63;;
52294;SDS011;38243;53.212;6.574;2023-05-07T12:08:15;3.05;;;2.60;;
52294;SDS011;38243;53.212;6.574;2023-05-07T12:10:42;2.70;;;2.50;;
52294;SDS011;38243;53.212;6.574;2023-05-07T12:13:18;3.13;;;2.80;;
52294;SDS011;38243;53.212;6.574;2023-05-07T12:15:52;2.60;;;2.40;;
52294;SDS011;38243;53.212;6.574;2023-05-07T12:18:18;2.80;;;2.55;;
52294;SDS011;38243;53.212;6.574;2023-05-07T12:20:45;2.50;;;2.30;;
52294;SDS011;38243;53.212;6.574;2023-05-07T12:23:12;2.93;;;2.63;;
52294;SDS011;38243;53.212;6.574;2023-05-07T12:25:38;2.65;;;2.45;;
52294;SDS011;38243;53.212;6.574;2023-05-07T12:28:07;2.58;;;2.38;;
52294;SDS011;38243;53.212;6.574;2023-05-07T12:30:39;2.50;;;2.30;;
52294;SDS011;38243;53.212;6.574;2023-05-07T12:33:05;2.60;;;2.30;;
52294;SDS011;38243;53.212;6.574;2023-05-07T12:35:35;2.50;;;2.30;;
52294;SDS011;38243;53.212;6.574;2023-05-07T12:38:07;2.60;;;2.40;;
52294;SDS011;38243;53.212;6.574;2023-05-07T12:40:38;2.50;;;2.30;;
52294;SDS011;38243;53.212;6.574;2023-05-07T12:43:24;2.60;;;2.40;;
52294;SDS011;38243;53.212;6.574;2023-05-07T12:45:54;2.60;;;2.40;;
52294;SDS011;38243;53.212;6.574;2023-05-07T12:48:22;2.53;;;2.33;;
52294;SDS011;38243;53.212;6.574;2023-05-07T12:50:55;2.70;;;2.50;;
52294;SDS011;38243;53.212;6.574;2023-05-07T12:53:25;2.83;;;2.50;;
52294;SDS011;38243;53.212;6.574;2023-05-07T12:55:52;2.50;;;2.30;;
52294;SDS011;38243;53.212;6.574;2023-05-07T12:58:21;2.30;;;2.10;;
52294;SDS011;38243;53.212;6.574;2023-05-07T13:00:49;2.85;;;2.42;;
52294;SDS011;38243;53.212;6.574;2023-05-07T13:03:26;2.67;;;2.40;;
52294;SDS011;38243;53.212;6.574;2023-05-07T13:05:54;2.80;;;2.60;;
52294;SDS011;38243;53.212;6.574;2023-05-07T13:08:28;2.60;;;2.38;;
52294;SDS011;38243;53.212;6.574;2023-05-07T13:10:59;2.50;;;2.30;;
52294;SDS011;38243;53.212;6.574;2023-05-07T13:13:29;2.53;;;2.25;;
52294;SDS011;38243;53.212;6.574;2023-05-07T13:15:58;2.35;;;2.15;;
52294;SDS011;38243;53.212;6.574;2023-05-07T13:18:25;2.45;;;2.25;;
52294;SDS011;38243;53.212;6.574;2023-05-07T13:20:52;2.47;;;2.28;;
52294;SDS011;38243;53.212;6.574;2023-05-07T13:23:20;2.77;;;2.00;;
52294;SDS011;38243;53.212;6.574;2023-05-07T13:25:47;2.50;;;2.30;;
52294;SDS011;38243;53.212;6.574;2023-05-07T13:28:13;2.30;;;2.10;;
52294;SDS011;38243;53.212;6.574;2023-05-07T13:30:38;2.53;;;2.33;;
52294;SDS011;38243;53.212;6.574;2023-05-07T13:33:05;2.83;;;2.25;;
52294;SDS011;38243;53.212;6.574;2023-05-07T13:35:31;2.45;;;2.25;;
52294;SDS011;38243;53.212;6.574;2023-05-07T13:37:58;2.38;;;2.17;;
52294;SDS011;38243;53.212;6.574;2023-05-07T13:40:23;2.60;;;2.17;;
52294;SDS011;38243;53.212;6.574;2023-05-07T13:42:50;2.60;;;2.22;;
52294;SDS011;38243;53.212;6.574;2023-05-07T13:45:16;2.67;;;2.00;;
52294;SDS011;38243;53.212;6.574;2023-05-07T13:47:45;2.50;;;2.30;;
52294;SDS011;38243;53.212;6.574;2023-05-07T13:50:12;3.35;;;2.20;;
52294;SDS011;38243;53.212;6.574;2023-05-07T13:52:41;2.40;;;2.20;;
52294;SDS011;38243;53.212;6.574;2023-05-07T13:55:08;2.30;;;2.10;;
52294;SDS011;38243;53.212;6.574;2023-05-07T13:57:39;2.25;;;2.13;;
52294;SDS011;38243;53.212;6.574;2023-05-07T14:00:05;2.30;;;2.10;;
52294;SDS011;38243;53.212;6.574;2023-05-07T14:02:32;2.72;;;2.45;;
52294;SDS011;38243;53.212;6.574;2023-05-07T14:04:57;2.90;;;2.37;;
52294;SDS011;38243;53.212;6.574;2023-05-07T14:07:23;1.92;;;1.83;;
52294;SDS011;38243;53.212;6.574;2023-05-07T14:09:49;1.93;;;1.80;;
52294;SDS011;38243;53.212;6.574;2023-05-07T14:12:15;2.20;;;2.00;;
52294;SDS011;38243;53.212;6.574;2023-05-07T14:14:40;2.67;;;2.00;;
52294;SDS011;38243;53.212;6.574;2023-05-07T14:17:06;2.33;;;2.05;;
52294;SDS011;38243;53.212;6.574;2023-05-07T14:19:33;3.85;;;2.42;;
52294;SDS011;38243;53.212;6.574;2023-05-07T14:21:59;2.33;;;2.17;;
52294;SDS011;38243;53.212;6.574;2023-05-07T14:24:24;2.20;;;2.00;;
52294;SDS011;38243;53.212;6.574;2023-05-07T14:26:50;2.30;;;2.10;;
52294;SDS011;38243;53.212;6.574;2023-05-07T14:29:16;2.80;;;2.17;;
52294;SDS011;38243;53.212;6.574;2023-05-07T14:31:44;2.30;;;2.10;;
52294;SDS011;38243;53.212;6.574;2023-05-07T14:34:10;1.75;;;1.65;;
52294;SDS011;38243;53.212;6.574;2023-05-07T14:36:36;2.77;;;2.20;;
52294;SDS011;38243;53.212;6.574;2023-05-07T14:39:03;2.15;;;1.95;;
52294;SDS011;38243;53.212;6.574;2023-05-07T14:41:29;1.88;;;1.77;;
52294;SDS011;38243;53.212;6.574;2023-05-07T14:43:54;2.00;;;1.80;;
52294;SDS011;38243;53.212;6.574;2023-05-07T14:46:20;2.00;;;1.83;;
52294;SDS011;38243;53.212;6.574;2023-05-07T14:48:46;2.22;;;1.90;;
52294;SDS011;38243;53.212;6.574;2023-05-07T14:51:13;1.92;;;1.80;;
52294;SDS011;38243;53.212;6.574;2023-05-07T14:53:40;2.67;;;2.00;;
52294;SDS011;38243;53.212;6.574;2023-05-07T14:56:06;2.25;;;2.05;;
52294;SDS011;38243;53.212;6.574;2023-05-07T14:58:33;1.75;;;1.65;;
52294;SDS011;38243;53.212;6.574;2023-05-07T15:00:59;2.03;;;1.90;;
52294;SDS011;38243;53.212;6.574;2023-05-07T15:03:26;2.03;;;1.80;;
52294;SDS011;38243;53.212;6.574;2023-05-07T15:05:52;2.65;;;1.90;;
52294;SDS011;38243;53.212;6.574;2023-05-07T15:08:18;2.00;;;1.80;;
52294;SDS011;38243;53.212;6.574;2023-05-07T15:10:44;2.70;;;2.10;;